createdAt,value
2023-05-17T00:00:38.815Z,99492.00
2023-05-17T00:03:06.135Z,99491.00
2023-05-17T00:05:33.206Z,99491.00
2023-05-17T00:08:00.184Z,99494.00
2023-05-17T00:10:27.271Z,99504.00
2023-05-17T00:12:54.192Z,99502.00
2023-05-17T00:15:21.301Z,99497.00
2023-05-17T00:17:48.311Z,99505.00
2023-05-17T00:20:15.317Z,99499.00
2023-05-17T00:22:43.395Z,99504.00
2023-05-17T00:25:10.442Z,99505.00
2023-05-17T00:27:37.595Z,99509.00
2023-05-17T00:30:05.954Z,99504.00
2023-05-17T00:32:32.989Z,99515.00
2023-05-17T00:35:00.115Z,99508.00
2023-05-17T00:37:27.123Z,99515.00
2023-05-17T00:39:54.179Z,99507.00
2023-05-17T00:42:21.438Z,99514.00
2023-05-17T00:44:48.550Z,99526.00
2023-05-17T00:47:16.676Z,99515.00
2023-05-17T00:49:44.503Z,99524.00
2023-05-17T00:52:11.801Z,99509.00
2023-05-17T00:54:40.041Z,99514.00
2023-05-17T00:57:07.630Z,99515.00
2023-05-17T00:59:34.618Z,99513.00
2023-05-17T01:02:02.802Z,99513.00
2023-05-17T01:04:30.452Z,99513.00
2023-05-17T01:06:57.407Z,99518.00
2023-05-17T01:09:24.467Z,99509.00
2023-05-17T01:12:01.894Z,99518.00
2023-05-17T01:15:36.038Z,99527.00
2023-05-17T01:18:34.944Z,99534.00
2023-05-17T01:21:17.357Z,99525.00
2023-05-17T01:24:18.777Z,99535.00
2023-05-17T01:26:58.612Z,99530.00
2023-05-17T01:29:29.937Z,99533.00
2023-05-17T01:31:58.581Z,99526.00
2023-05-17T01:34:27.411Z,99539.00
2023-05-17T01:36:54.569Z,99531.00
2023-05-17T01:39:22.017Z,99528.00
2023-05-17T01:42:07.645Z,99528.00
2023-05-17T01:45:08.206Z,99534.00
2023-05-17T01:48:09.777Z,99535.00
2023-05-17T01:50:39.908Z,99541.00
2023-05-17T01:53:17.814Z,99530.00
2023-05-17T01:55:55.321Z,99544.00
2023-05-17T01:58:26.063Z,99532.00
2023-05-17T02:00:56.675Z,99535.00
2023-05-17T02:03:24.410Z,99540.00
2023-05-17T02:05:51.429Z,99539.00
2023-05-17T02:08:18.469Z,99536.00
2023-05-17T02:10:45.543Z,99538.00
2023-05-17T02:13:13.196Z,99539.00
2023-05-17T02:15:40.044Z,99540.00
2023-05-17T02:18:08.557Z,99540.00
2023-05-17T02:20:35.666Z,99538.00
2023-05-17T02:23:02.597Z,99549.00
2023-05-17T02:25:29.833Z,99548.00
2023-05-17T02:27:57.350Z,99553.00
2023-05-17T02:30:24.765Z,99545.00
2023-05-17T02:32:52.592Z,99551.00
2023-05-17T02:35:19.969Z,99548.00
2023-05-17T02:37:46.901Z,99544.00
2023-05-17T02:40:14.528Z,99554.00
2023-05-17T02:42:41.379Z,99552.00
2023-05-17T02:45:08.743Z,99569.00
2023-05-17T02:47:35.803Z,99570.00
2023-05-17T02:50:02.945Z,99568.00
2023-05-17T02:52:29.872Z,99567.00
2023-05-17T02:55:00.128Z,99556.00
2023-05-17T02:57:27.124Z,99562.00
2023-05-17T02:59:54.181Z,99556.00
2023-05-17T03:02:21.500Z,99563.00
2023-05-17T03:04:48.693Z,99570.00
2023-05-17T03:07:15.676Z,99566.00
2023-05-17T03:09:42.999Z,99581.00
2023-05-17T03:12:10.510Z,99589.00
2023-05-17T03:14:37.403Z,99576.00
2023-05-17T03:17:04.727Z,99567.00
2023-05-17T03:19:31.768Z,99566.00
2023-05-17T03:21:58.920Z,99573.00
2023-05-17T03:24:26.145Z,99583.00
2023-05-17T03:26:53.109Z,99586.00
2023-05-17T03:29:20.098Z,99587.00
2023-05-17T03:31:47.178Z,99585.00
2023-05-17T03:34:14.138Z,99587.00
2023-05-17T03:36:41.098Z,99593.00
2023-05-17T03:39:08.181Z,99588.00
2023-05-17T03:41:35.290Z,99597.00
2023-05-17T03:44:15.873Z,99593.00
2023-05-17T03:46:42.885Z,99612.00
2023-05-17T03:49:10.012Z,99602.00
2023-05-17T03:51:37.070Z,99603.00
2023-05-17T03:54:13.902Z,99609.00
2023-05-17T03:56:40.867Z,99604.00
2023-05-17T03:59:08.039Z,99612.00
2023-05-17T04:01:34.996Z,99621.00
2023-05-17T04:04:04.477Z,99615.00
2023-05-17T04:06:32.294Z,99618.00
2023-05-17T04:09:02.182Z,99613.00
2023-05-17T04:11:42.326Z,99616.00
2023-05-17T04:14:09.384Z,99625.00
2023-05-17T04:17:08.866Z,99620.00
2023-05-17T04:19:58.635Z,99625.00
2023-05-17T04:22:27.629Z,99633.00
2023-05-17T04:24:54.972Z,99644.00
2023-05-17T04:27:43.054Z,99633.00
2023-05-17T04:30:27.401Z,99641.00
2023-05-17T04:32:56.942Z,99647.00
2023-05-17T04:35:33.473Z,99650.00
2023-05-17T04:38:00.757Z,99644.00
2023-05-17T04:40:27.744Z,99656.00
2023-05-17T04:42:54.723Z,99647.00
2023-05-17T04:45:21.758Z,99652.00
2023-05-17T04:47:50.445Z,99652.00
2023-05-17T04:50:40.472Z,99654.00
2023-05-17T04:53:05.851Z,99656.00
2023-05-17T04:55:49.388Z,99658.00
2023-05-17T04:58:17.450Z,99664.00
2023-05-17T05:00:45.284Z,99667.00
2023-05-17T05:03:30.945Z,99661.00
2023-05-17T05:06:01.017Z,99660.00
2023-05-17T05:08:28.765Z,99668.00
2023-05-17T05:10:55.948Z,99662.00
2023-05-17T05:13:23.444Z,99668.00
2023-05-17T05:15:50.939Z,99678.00
2023-05-17T05:18:19.148Z,99674.00
2023-05-17T05:20:48.851Z,99677.00
2023-05-17T05:23:15.794Z,99677.00
2023-05-17T05:25:44.661Z,99677.00
2023-05-17T05:28:12.239Z,99686.00
2023-05-17T05:30:41.354Z,99688.00
2023-05-17T05:33:08.300Z,99692.00
2023-05-17T05:35:35.512Z,99684.00
2023-05-17T05:38:05.174Z,99684.00
2023-05-17T05:40:32.591Z,99688.00
2023-05-17T05:42:59.659Z,99694.00
2023-05-17T05:45:26.608Z,99689.00
2023-05-17T05:47:53.833Z,99706.00
2023-05-17T05:50:21.675Z,99695.00
2023-05-17T05:52:48.707Z,99687.00
2023-05-17T05:55:18.674Z,99701.00
2023-05-17T05:57:48.831Z,99696.00
2023-05-17T06:00:18.098Z,99702.00
2023-05-17T06:02:48.319Z,99701.00
2023-05-17T06:05:15.304Z,99699.00
2023-05-17T06:07:57.978Z,99698.00
2023-05-17T06:10:55.340Z,99702.00
2023-05-17T06:13:32.910Z,99703.00
2023-05-17T06:16:03.924Z,99707.00
2023-05-17T06:18:30.941Z,99699.00
2023-05-17T06:21:16.247Z,99705.00
2023-05-17T06:23:43.270Z,99708.00
2023-05-17T06:34:29.471Z,99721.00
2023-05-17T06:37:01.946Z,99711.00
2023-05-17T06:39:29.026Z,99715.00
2023-05-17T06:41:59.057Z,99703.00
2023-05-17T06:44:26.144Z,99716.00
2023-05-17T06:46:56.890Z,99717.00
2023-05-17T06:49:41.920Z,99708.00
2023-05-17T06:52:13.881Z,99710.00
2023-05-17T06:54:51.011Z,99727.00
2023-05-17T06:57:38.593Z,99701.00
2023-05-17T07:00:10.585Z,99720.00
2023-05-17T07:02:43.134Z,99715.00
2023-05-17T07:05:55.298Z,99724.00
2023-05-17T07:08:22.398Z,99716.00
2023-05-17T07:10:52.537Z,99719.00
2023-05-17T07:13:22.845Z,99723.00
2023-05-17T07:16:15.844Z,99718.00
2023-05-17T07:18:48.937Z,99732.00
2023-05-17T07:21:26.900Z,99732.00
2023-05-17T07:24:13.953Z,99725.00
2023-05-17T07:26:41.001Z,99727.00
2023-05-17T07:29:07.970Z,99726.00
2023-05-17T07:31:34.923Z,99733.00
2023-05-17T07:34:02.223Z,99734.00
2023-05-17T07:36:30.768Z,99728.00
2023-05-17T07:38:58.495Z,99726.00
2023-05-17T07:41:25.941Z,99734.00
2023-05-17T07:43:52.993Z,99731.00
2023-05-17T07:46:19.891Z,99733.00
2023-05-17T07:48:49.016Z,99726.00
2023-05-17T07:51:18.763Z,99729.00
2023-05-17T07:53:52.266Z,99722.00
2023-05-17T07:56:21.625Z,99735.00
2023-05-17T07:58:48.639Z,99724.00
2023-05-17T08:01:18.150Z,99730.00
2023-05-17T08:03:48.559Z,99728.00
2023-05-17T08:06:16.914Z,99721.00
2023-05-17T08:08:44.622Z,99714.00
2023-05-17T08:11:25.578Z,99731.00
2023-05-17T08:13:52.717Z,99719.00
2023-05-17T08:16:21.276Z,99727.00
2023-05-17T08:18:48.590Z,99720.00
2023-05-17T08:21:17.899Z,99721.00
2023-05-17T08:23:45.050Z,99726.00
2023-05-17T08:26:16.205Z,99723.00
2023-05-17T08:28:48.598Z,99724.00
2023-05-17T08:31:15.610Z,99730.00
2023-05-17T08:33:56.534Z,99723.00
2023-05-17T08:36:23.655Z,99732.00
2023-05-17T08:38:56.662Z,99731.00
2023-05-17T08:41:37.765Z,99723.00
2023-05-17T08:44:10.450Z,99723.00
2023-05-17T08:46:53.807Z,99726.00
2023-05-17T08:49:32.535Z,99722.00
2023-05-17T08:52:36.588Z,99718.00
2023-05-17T08:55:16.582Z,99720.00
2023-05-17T08:57:47.022Z,99719.00
2023-05-17T09:00:36.466Z,99712.00
2023-05-17T09:03:14.121Z,99710.00
2023-05-17T09:05:41.820Z,99723.00
2023-05-17T09:08:19.174Z,99718.00
2023-05-17T09:10:46.136Z,99726.00
2023-05-17T09:13:21.513Z,99716.00
2023-05-17T09:15:54.033Z,99721.00
2023-05-17T09:18:36.968Z,99724.00
2023-05-17T09:21:09.195Z,99727.00
2023-05-17T09:23:40.767Z,99721.00
2023-05-17T09:26:16.245Z,99729.00
2023-05-17T09:28:43.764Z,99721.00
2023-05-17T09:31:15.208Z,99736.00
2023-05-17T09:33:53.646Z,99723.00
2023-05-17T09:36:27.348Z,99733.00
2023-05-17T09:38:59.554Z,99721.00
2023-05-17T09:41:28.679Z,99728.00
2023-05-17T09:44:16.185Z,99723.00
2023-05-17T09:46:47.898Z,99727.00
2023-05-17T09:49:20.373Z,99728.00
2023-05-17T09:51:49.447Z,99730.00
2023-05-17T09:54:17.929Z,99739.00
2023-05-17T09:57:00.260Z,99741.00
2023-05-17T09:59:35.331Z,99733.00
2023-05-17T10:02:06.665Z,99735.00
2023-05-17T10:04:37.674Z,99718.00
2023-05-17T10:07:05.333Z,99729.00
2023-05-17T10:09:35.682Z,99731.00
2023-05-17T10:12:05.993Z,99718.00
2023-05-17T10:14:36.336Z,99721.00
2023-05-17T10:17:04.259Z,99717.00
2023-05-17T10:19:31.889Z,99715.00
2023-05-17T10:22:14.718Z,99717.00
2023-05-17T10:24:50.074Z,99715.00
2023-05-17T10:27:17.646Z,99720.00
2023-05-17T10:29:46.949Z,99712.00
2023-05-17T10:32:17.412Z,99714.00
2023-05-17T10:34:51.783Z,99718.00
2023-05-17T10:37:26.114Z,99704.00
2023-05-17T10:39:59.500Z,99703.00
2023-05-17T10:42:35.016Z,99700.00
2023-05-17T10:45:12.720Z,99708.00
2023-05-17T10:47:51.043Z,99707.00
2023-05-17T10:50:31.618Z,99711.00
2023-05-17T10:52:59.896Z,99696.00
2023-05-17T10:56:04.269Z,99695.00
2023-05-17T10:58:32.914Z,99713.00
2023-05-17T11:00:59.966Z,99696.00
2023-05-17T11:03:37.913Z,99691.00
2023-05-17T11:06:24.533Z,99706.00
2023-05-17T11:09:18.780Z,99710.00
2023-05-17T11:12:12.350Z,99701.00
2023-05-17T11:14:45.814Z,99700.00
2023-05-17T11:17:15.142Z,99700.00
2023-05-17T11:20:13.845Z,99701.00
2023-05-17T11:23:00.088Z,99715.00
2023-05-17T11:25:48.432Z,99699.00
2023-05-17T11:28:22.127Z,99696.00
2023-05-17T11:30:55.947Z,99695.00
2023-05-17T11:33:41.815Z,99705.00
2023-05-17T11:36:22.959Z,99699.00
2023-05-17T11:39:18.880Z,99701.00
2023-05-17T11:41:54.587Z,99694.00
2023-05-17T11:44:36.102Z,99685.00
2023-05-17T11:47:16.204Z,99704.00
2023-05-17T11:50:27.399Z,99698.00
2023-05-17T11:53:00.312Z,99691.00
2023-05-17T11:55:34.176Z,99697.00
2023-05-17T11:58:09.378Z,99700.00
2023-05-17T12:00:53.207Z,99691.00
2023-05-17T12:03:30.857Z,99686.00
2023-05-17T12:06:18.400Z,99681.00
2023-05-17T12:08:57.379Z,99683.00
2023-05-17T12:11:34.977Z,99686.00
2023-05-17T12:14:14.248Z,99683.00
2023-05-17T12:16:59.491Z,99679.00
2023-05-17T12:19:30.025Z,99686.00
2023-05-17T12:22:17.034Z,99690.00
2023-05-17T12:24:52.960Z,99677.00
2023-05-17T12:27:46.504Z,99687.00
2023-05-17T12:30:34.127Z,99684.00
2023-05-17T12:33:05.868Z,99686.00
2023-05-17T12:35:33.434Z,99680.00
2023-05-17T12:38:03.963Z,99672.00
2023-05-17T12:40:32.290Z,99675.00
2023-05-17T12:43:04.137Z,99669.00
2023-05-17T12:45:34.263Z,99671.00
2023-05-17T12:48:06.790Z,99667.00
2023-05-17T12:50:33.906Z,99663.00
2023-05-17T12:53:08.973Z,99663.00
2023-05-17T12:55:40.974Z,99672.00
2023-05-17T12:58:10.974Z,99666.00
2023-05-17T13:00:40.910Z,99655.00
2023-05-17T13:03:20.442Z,99659.00
2023-05-17T13:06:06.213Z,99657.00
2023-05-17T13:08:34.104Z,99644.00
2023-05-17T13:11:41.215Z,99652.00
2023-05-17T13:14:41.165Z,99646.00
2023-05-17T13:17:40.711Z,99660.00
2023-05-17T13:20:16.395Z,99651.00
2023-05-17T13:23:24.153Z,99661.00
2023-05-17T13:26:04.306Z,99658.00
2023-05-17T13:28:31.287Z,99654.00
2023-05-17T13:31:26.296Z,99657.00
2023-05-17T13:33:53.317Z,99655.00
2023-05-17T13:36:27.006Z,99654.00
2023-05-17T13:38:56.922Z,99650.00
2023-05-17T13:41:37.749Z,99666.00
2023-05-17T13:44:04.986Z,99666.00
2023-05-17T13:47:43.247Z,99665.00
2023-05-17T13:50:20.454Z,99661.00
2023-05-17T13:53:03.378Z,99659.00
2023-05-17T13:55:32.806Z,99661.00
2023-05-17T13:58:17.044Z,99663.00
2023-05-17T14:01:04.571Z,99662.00
2023-05-17T14:03:31.976Z,99648.00
2023-05-17T14:10:17.994Z,99651.00
2023-05-17T14:12:53.329Z,99646.00
2023-05-17T14:15:20.566Z,99639.00
2023-05-17T14:20:41.208Z,99633.00
2023-05-17T14:38:30.415Z,99623.00
2023-05-17T14:41:32.521Z,99627.00
2023-05-17T14:44:06.467Z,99623.00
2023-05-17T14:46:44.835Z,99622.00
2023-05-17T14:49:14.938Z,99621.00
2023-05-17T14:51:42.263Z,99622.00
2023-05-17T14:54:43.995Z,99626.00
2023-05-17T14:57:23.481Z,99613.00
2023-05-17T15:08:16.004Z,99613.00
2023-05-17T15:10:46.164Z,99623.00
2023-05-17T15:14:29.016Z,99615.00
2023-05-17T15:21:19.101Z,99607.00
2023-05-17T15:23:55.523Z,99616.00
2023-05-17T15:26:31.016Z,99621.00
2023-05-17T15:29:03.757Z,99614.00
2023-05-17T15:31:59.300Z,99616.00
2023-05-17T15:34:27.134Z,99609.00
2023-05-17T15:36:56.562Z,99610.00
2023-05-17T15:39:24.172Z,99610.00
2023-05-17T15:50:12.655Z,99609.00
2023-05-17T15:52:39.613Z,99614.00
2023-05-17T15:55:09.321Z,99625.00
2023-05-17T15:57:48.302Z,99604.00
2023-05-17T16:00:15.783Z,99618.00
2023-05-17T16:02:42.873Z,99614.00
2023-05-17T16:10:04.294Z,99624.00
2023-05-17T16:12:35.912Z,99613.00
2023-05-17T16:15:17.290Z,99612.00
2023-05-17T16:17:47.158Z,99609.00
2023-05-17T16:20:29.623Z,99618.00
2023-05-17T16:27:19.812Z,99622.00
2023-05-17T16:30:00.732Z,99618.00
2023-05-17T16:32:51.008Z,99620.00
2023-05-17T16:35:25.816Z,99628.00
2023-05-17T16:38:13.046Z,99631.00
2023-05-17T16:40:57.964Z,99620.00
2023-05-17T16:43:44.784Z,99625.00
2023-05-17T16:46:30.323Z,99625.00
2023-05-17T16:49:09.007Z,99619.00
2023-05-17T16:51:53.117Z,99627.00
2023-05-17T16:54:26.150Z,99616.00
2023-05-17T16:57:14.269Z,99628.00
2023-05-17T17:00:06.499Z,99617.00
2023-05-17T17:03:14.570Z,99628.00
2023-05-17T17:06:31.824Z,99640.00
2023-05-17T17:10:23.793Z,99628.00
2023-05-17T17:53:45.403Z,99648.00
2023-05-17T18:05:31.847Z,99654.00
2023-05-17T18:08:02.376Z,99647.00
2023-05-17T18:10:46.040Z,99653.00
2023-05-17T18:13:55.122Z,99652.00
2023-05-17T18:16:27.769Z,99660.00
2023-05-17T18:19:01.075Z,99654.00
2023-05-17T18:21:46.430Z,99655.00
2023-05-17T18:24:28.291Z,99666.00
2023-05-17T18:27:02.336Z,99661.00
2023-05-17T18:29:43.263Z,99654.00
2023-05-17T18:32:10.548Z,99666.00
2023-05-17T18:34:40.596Z,99664.00
2023-05-17T18:37:07.647Z,99653.00
2023-05-17T18:39:43.313Z,99655.00
2023-05-17T18:45:18.177Z,99660.00
2023-05-17T18:50:41.516Z,99671.00
2023-05-17T18:53:21.376Z,99668.00
2023-05-17T18:55:48.410Z,99674.00
2023-05-17T18:58:15.425Z,99677.00
2023-05-17T19:00:42.453Z,99667.00
2023-05-17T19:03:09.779Z,99673.00
2023-05-17T19:05:36.807Z,99669.00
2023-05-17T19:08:06.858Z,99681.00
2023-05-17T19:10:33.930Z,99679.00
2023-05-17T19:13:03.964Z,99671.00
2023-05-17T19:15:38.422Z,99674.00
2023-05-17T19:18:20.126Z,99690.00
2023-05-17T19:20:47.280Z,99683.00
2023-05-17T19:23:14.213Z,99696.00
2023-05-17T19:25:46.353Z,99691.00
2023-05-17T19:28:13.312Z,99688.00
2023-05-17T19:30:40.631Z,99697.00
2023-05-17T19:33:07.731Z,99697.00
2023-05-17T19:36:00.188Z,99694.00
2023-05-17T19:41:30.863Z,99701.00
2023-05-17T19:44:01.325Z,99691.00
2023-05-17T19:46:28.387Z,99697.00
2023-05-17T19:49:04.684Z,99689.00
2023-05-17T19:51:46.810Z,99690.00
2023-05-17T19:54:13.801Z,99697.00
2023-05-17T19:56:54.330Z,99696.00
2023-05-17T19:59:21.317Z,99699.00
2023-05-17T20:01:48.474Z,99703.00
2023-05-17T20:04:15.652Z,99691.00
2023-05-17T20:06:42.683Z,99691.00
2023-05-17T20:09:12.791Z,99706.00
2023-05-17T20:11:39.893Z,99703.00
2023-05-17T20:14:07.089Z,99694.00
2023-05-17T20:16:34.203Z,99695.00
2023-05-17T20:19:01.413Z,99698.00
2023-05-17T20:21:31.783Z,99704.00
2023-05-17T20:24:05.088Z,99693.00
2023-05-17T20:26:45.799Z,99693.00
2023-05-17T20:29:21.437Z,99702.00
2023-05-17T20:32:01.714Z,99703.00
2023-05-17T20:34:32.542Z,99709.00
2023-05-17T20:36:59.905Z,99705.00
2023-05-17T20:39:35.701Z,99704.00
2023-05-17T20:42:05.329Z,99711.00
2023-05-17T20:44:45.412Z,99703.00
2023-05-17T20:47:12.324Z,99711.00
2023-05-17T20:49:42.530Z,99700.00
2023-05-17T20:52:24.745Z,99700.00
2023-05-17T20:55:42.593Z,99712.00
2023-05-17T20:58:09.516Z,99713.00
2023-05-17T21:00:36.605Z,99706.00
2023-05-17T21:03:14.185Z,99705.00
2023-05-17T21:06:01.684Z,99696.00
2023-05-17T21:08:28.826Z,99707.00
2023-05-17T21:10:56.287Z,99705.00
2023-05-17T21:16:28.268Z,99707.00
2023-05-17T21:18:55.398Z,99704.00
2023-05-17T21:24:27.607Z,99703.00
2023-05-17T21:27:11.673Z,99693.00
2023-05-17T21:29:54.092Z,99700.00
2023-05-17T21:32:27.799Z,99709.00
2023-05-17T21:34:54.955Z,99704.00
2023-05-17T21:37:21.989Z,99711.00
2023-05-17T21:39:49.149Z,99699.00
2023-05-17T21:45:29.953Z,99697.00
2023-05-17T21:47:57.198Z,99705.00
2023-05-17T21:53:33.907Z,99696.00
2023-05-17T21:56:03.748Z,99703.00
2023-05-17T21:58:32.443Z,99699.00
2023-05-17T22:00:59.920Z,99703.00
2023-05-17T22:03:51.411Z,99695.00
2023-05-17T22:06:34.026Z,99694.00
2023-05-17T22:09:08.732Z,99694.00
2023-05-17T22:11:38.676Z,99695.00
2023-05-17T22:16:32.589Z,99698.00
2023-05-17T22:16:56.810Z,99694.00
2023-05-17T22:19:36.062Z,99698.00
2023-05-17T22:22:09.401Z,99699.00
2023-05-17T22:24:37.026Z,99710.00
2023-05-17T22:27:04.687Z,99699.00
2023-05-17T22:51:43.491Z,99707.00
2023-05-17T22:54:10.750Z,99698.00
2023-05-17T22:57:06.828Z,99698.00
2023-05-17T22:59:46.709Z,99708.00
2023-05-17T23:03:04.008Z,99705.00
2023-05-17T23:05:34.056Z,99693.00
2023-05-17T23:08:05.028Z,99710.00
2023-05-17T23:10:32.167Z,99710.00
2023-05-17T23:12:59.210Z,99700.00
2023-05-17T23:18:38.229Z,99694.00
2023-05-17T23:21:05.761Z,99705.00
2023-05-17T23:23:37.309Z,99696.00
2023-05-17T23:26:41.265Z,99691.00
2023-05-17T23:29:26.614Z,99685.00
2023-05-17T23:33:08.683Z,99695.00
2023-05-17T23:35:36.181Z,99694.00
2023-05-17T23:38:04.585Z,99698.00
2023-05-17T23:47:12.136Z,99681.00
2023-05-17T23:49:52.099Z,99687.00
2023-05-17T23:52:35.850Z,99671.00
2023-05-17T23:55:12.258Z,99663.00
2023-05-17T23:57:40.122Z,99656.00
